createdAt,value
2017-05-10T04:57:17.312Z,1.34
2017-05-10T04:59:44.090Z,1.20
2017-05-10T05:02:10.854Z,0.58
2017-05-10T05:04:37.653Z,1.50
2017-05-10T05:07:04.461Z,1.68
2017-05-10T05:09:31.232Z,1.34
2017-05-10T05:11:58.053Z,1.42
2017-05-10T05:14:24.823Z,1.66
2017-05-10T05:16:51.567Z,1.50
2017-05-10T05:19:18.360Z,1.46
2017-05-10T05:21:45.117Z,1.42
2017-05-10T05:24:11.886Z,1.82
2017-05-10T05:26:38.697Z,1.34
2017-05-10T05:29:05.447Z,1.72
2017-05-10T05:31:32.272Z,1.78
2017-05-10T05:33:59.070Z,1.52
2017-05-10T05:36:25.846Z,1.90
2017-05-10T05:38:52.611Z,1.48
2017-05-10T05:41:19.446Z,1.28
2017-05-10T05:43:46.222Z,2.08
2017-05-10T05:46:13.019Z,1.46
2017-05-10T05:48:39.795Z,1.44
2017-05-10T05:51:06.579Z,1.30
2017-05-10T05:53:33.349Z,1.48
2017-05-10T05:56:00.148Z,1.68
2017-05-10T05:58:27.918Z,1.70
2017-05-10T06:00:54.688Z,1.26
2017-05-10T06:03:21.474Z,1.30
2017-05-10T06:05:48.254Z,1.04
2017-05-10T06:08:15.044Z,2.52
2017-05-10T06:10:41.830Z,1.00
2017-05-10T06:13:08.579Z,1.22
2017-05-10T06:15:35.322Z,1.64
2017-05-10T06:18:02.235Z,1.32
2017-05-10T06:20:28.990Z,1.30
2017-05-10T06:22:55.752Z,1.24
2017-05-10T06:25:22.553Z,1.40
2017-05-10T06:27:49.320Z,1.20
2017-05-10T06:30:16.090Z,0.92
2017-05-10T06:32:42.880Z,1.44
2017-05-10T06:35:09.626Z,1.32
2017-05-10T06:37:36.403Z,1.02
2017-05-10T06:40:03.211Z,0.76
2017-05-10T06:42:29.956Z,1.04
2017-05-10T06:44:56.722Z,1.48
2017-05-10T06:47:23.520Z,0.56
2017-05-10T06:49:50.266Z,0.84
2017-05-10T06:52:17.017Z,0.94
2017-05-10T06:54:43.821Z,0.80
2017-05-10T06:57:10.583Z,0.66
2017-05-10T06:59:37.334Z,1.38
2017-05-10T07:02:04.205Z,0.70
2017-05-10T07:04:30.972Z,1.10
2017-05-10T07:06:57.740Z,0.42
2017-05-10T07:09:24.554Z,1.10
2017-05-10T07:11:51.326Z,1.26
2017-05-10T07:14:18.094Z,1.00
2017-05-10T07:16:44.888Z,1.40
2017-05-10T07:19:11.671Z,1.04
2017-05-10T07:21:38.450Z,0.76
2017-05-10T07:24:05.330Z,1.10
2017-05-10T07:26:32.094Z,1.04
2017-05-10T07:28:58.854Z,0.92
2017-05-10T07:31:25.657Z,0.72
2017-05-10T07:33:52.457Z,1.14
2017-05-10T07:36:19.226Z,0.94
2017-05-10T07:38:46.007Z,0.64
2017-05-10T07:41:12.790Z,0.92
2017-05-10T07:43:39.533Z,0.98
2017-05-10T07:46:06.368Z,0.54
2017-05-10T07:48:33.106Z,0.60
2017-05-10T07:50:59.898Z,0.78
2017-05-10T07:53:26.675Z,0.80
2017-05-10T07:55:53.452Z,1.30
2017-05-10T07:58:20.212Z,0.80
2017-05-10T08:00:47.010Z,0.94
2017-05-10T08:03:13.763Z,0.96
2017-05-10T08:05:48.304Z,1.30
2017-05-10T08:08:15.110Z,0.60
2017-05-10T08:10:41.893Z,0.50
2017-05-10T08:13:08.703Z,0.76
2017-05-10T08:15:35.459Z,0.94
2017-05-10T08:18:02.229Z,1.06
2017-05-10T08:20:29.011Z,0.90
2017-05-10T08:22:55.787Z,0.92
2017-05-10T08:25:22.569Z,0.80
2017-05-10T08:27:49.389Z,1.10
2017-05-10T08:30:16.150Z,1.16
2017-05-10T08:32:42.925Z,1.56
2017-05-10T08:35:09.725Z,1.00
2017-05-10T08:37:36.484Z,1.16
2017-05-10T08:40:03.262Z,0.72
2017-05-10T08:42:30.081Z,1.10
2017-05-10T08:44:56.877Z,1.10
2017-05-10T08:47:23.631Z,1.32
2017-05-10T08:49:50.430Z,1.20
2017-05-10T08:52:17.189Z,1.18
2017-05-10T08:54:43.985Z,1.04
2017-05-10T08:57:10.786Z,0.98
2017-05-10T08:59:37.551Z,1.10
2017-05-10T09:02:04.306Z,1.18
2017-05-10T09:04:31.130Z,1.08
2017-05-10T09:06:57.959Z,1.50
2017-05-10T09:09:24.725Z,1.00
2017-05-10T09:11:51.541Z,1.22
2017-05-10T09:14:18.330Z,0.84
2017-05-10T09:16:45.090Z,0.98
2017-05-10T09:19:11.870Z,1.00
2017-05-10T09:21:38.627Z,0.98
2017-05-10T09:24:05.385Z,0.70
2017-05-10T09:26:32.323Z,0.82
2017-05-10T09:28:59.111Z,0.50
2017-05-10T09:31:25.882Z,0.82
2017-05-10T09:33:52.713Z,0.98
2017-05-10T09:36:19.496Z,1.04
2017-05-10T09:38:46.279Z,0.94
2017-05-10T09:41:13.131Z,1.04
2017-05-10T09:43:39.892Z,0.50
2017-05-10T09:46:06.677Z,0.86
2017-05-10T09:48:33.461Z,0.90
2017-05-10T09:51:00.230Z,0.50
2017-05-10T09:53:27.011Z,0.70
2017-05-10T09:55:53.850Z,0.74
2017-05-10T09:58:20.672Z,0.64
2017-05-10T10:00:47.455Z,0.60
2017-05-10T10:03:14.245Z,0.62
2017-05-10T10:05:41.014Z,0.74
2017-05-10T10:08:07.774Z,0.92
2017-05-10T10:10:34.667Z,0.60
2017-05-10T10:13:01.416Z,1.04
2017-05-10T10:15:28.186Z,0.90
2017-05-10T10:17:55.011Z,1.04
2017-05-10T10:20:21.794Z,1.10
2017-05-10T10:22:48.556Z,1.18
2017-05-10T10:25:15.389Z,1.30
2017-05-10T10:27:42.216Z,1.26
2017-05-10T10:30:09.006Z,0.88
2017-05-10T10:32:35.818Z,1.16
2017-05-10T10:35:02.590Z,0.80
2017-05-10T10:37:29.336Z,1.18
2017-05-10T10:39:56.148Z,1.10
2017-05-10T10:42:22.962Z,1.22
2017-05-10T10:44:50.304Z,0.80
2017-05-10T10:47:17.207Z,0.90
2017-05-10T10:49:43.997Z,1.02
2017-05-10T10:52:10.752Z,0.70
2017-05-10T10:54:37.557Z,0.88
2017-05-10T10:57:04.335Z,0.88
2017-05-10T10:59:31.093Z,0.76
2017-05-10T11:01:57.891Z,0.90
2017-05-10T11:04:24.653Z,0.92
2017-05-10T11:06:51.436Z,1.20
2017-05-10T11:09:18.256Z,1.08
2017-05-10T11:11:45.024Z,1.00
2017-05-10T11:14:11.780Z,0.92
2017-05-10T11:16:38.575Z,1.68
2017-05-10T11:19:05.384Z,0.82
2017-05-10T11:21:32.162Z,0.90
2017-05-10T11:23:58.975Z,1.08
2017-05-10T11:26:25.743Z,0.68
2017-05-10T11:28:52.523Z,0.82
2017-05-10T11:31:19.324Z,0.76
2017-05-10T11:33:46.100Z,0.78
2017-05-10T11:36:12.903Z,0.80
2017-05-10T11:38:39.731Z,0.92
2017-05-10T11:41:06.501Z,0.86
2017-05-10T11:43:33.268Z,1.64
2017-05-10T11:46:00.132Z,1.10
2017-05-10T11:48:26.923Z,1.14
2017-05-10T11:50:53.684Z,1.10
2017-05-10T11:53:20.642Z,1.50
2017-05-10T11:55:47.434Z,1.00
2017-05-10T11:58:14.198Z,1.38
2017-05-10T12:00:41.035Z,1.56
2017-05-10T12:03:07.804Z,1.30
2017-05-10T12:05:34.577Z,2.00
2017-05-10T12:08:01.363Z,1.66
2017-05-10T12:10:28.137Z,0.98
2017-05-10T12:12:54.918Z,1.20
2017-05-10T12:15:21.766Z,1.30
2017-05-10T12:17:58.537Z,1.66
2017-05-10T12:20:25.362Z,1.74
2017-05-10T12:22:52.129Z,1.02
2017-05-10T12:25:19.033Z,0.58
2017-05-10T12:27:46.804Z,0.94
2017-05-10T12:30:13.579Z,0.94
2017-05-10T12:32:40.526Z,1.72
2017-05-10T12:35:07.357Z,1.30
2017-05-10T12:37:34.225Z,1.24
2017-05-10T12:40:01.016Z,1.24
2017-05-10T12:42:27.842Z,1.30
2017-05-10T12:44:54.624Z,1.10
2017-05-10T12:47:21.451Z,1.46
2017-05-10T12:49:48.339Z,1.50
2017-05-10T12:52:15.850Z,1.44
2017-05-10T12:54:42.910Z,1.56
2017-05-10T12:57:09.703Z,1.10
2017-05-10T12:59:36.521Z,1.48
2017-05-10T13:02:03.347Z,1.22
2017-05-10T13:04:30.202Z,1.60
2017-05-10T13:06:56.974Z,1.82
2017-05-10T13:09:23.842Z,2.10
2017-05-10T13:11:50.629Z,0.50
2017-05-10T13:14:17.468Z,1.74
2017-05-10T13:16:44.265Z,2.12
2017-05-10T13:19:11.774Z,1.92
2017-05-10T13:21:38.614Z,2.10
2017-05-10T13:24:05.394Z,2.12
2017-05-10T13:26:32.191Z,1.80
2017-05-10T13:28:59.085Z,1.88
2017-05-10T13:31:26.085Z,1.72
2017-05-10T13:33:53.333Z,1.94
2017-05-10T13:36:20.210Z,1.62
2017-05-10T13:38:47.166Z,1.84
2017-05-10T13:41:14.019Z,1.30
2017-05-10T13:43:40.809Z,1.56
2017-05-10T13:46:07.635Z,1.30
2017-05-10T13:48:34.538Z,1.32
2017-05-10T13:51:01.367Z,1.42
2017-05-10T13:53:28.181Z,1.50
2017-05-10T13:55:55.008Z,1.52
2017-05-10T13:58:21.933Z,2.66
2017-05-10T14:00:48.849Z,1.58
2017-05-10T14:03:15.700Z,0.74
2017-05-10T14:05:42.479Z,1.82
2017-05-10T14:08:09.227Z,1.72
2017-05-10T14:10:36.146Z,1.52
2017-05-10T14:13:02.967Z,1.40
2017-05-10T14:15:29.723Z,1.22
2017-05-10T14:17:56.521Z,1.14
2017-05-10T14:20:23.353Z,1.30
2017-05-10T14:22:50.113Z,1.06
2017-05-10T14:25:16.930Z,1.00
2017-05-10T14:27:43.694Z,1.20
2017-05-10T14:30:10.487Z,1.40
2017-05-10T14:32:37.282Z,1.52
2017-05-10T14:35:04.075Z,1.60
2017-05-10T14:37:30.828Z,1.20
2017-05-10T14:39:57.713Z,0.52
2017-05-10T14:42:24.508Z,1.50
2017-05-10T14:44:51.446Z,0.92
2017-05-10T14:47:18.278Z,1.70
2017-05-10T14:49:45.041Z,1.52
2017-05-10T14:52:11.823Z,1.30
2017-05-10T14:54:38.630Z,1.24
2017-05-10T14:57:05.395Z,2.10
2017-05-10T14:59:32.261Z,1.82
2017-05-10T15:01:59.052Z,1.80
2017-05-10T15:04:27.381Z,2.44
2017-05-10T15:06:54.326Z,1.40
2017-05-10T15:09:21.154Z,0.84
2017-05-10T15:11:47.925Z,2.62
2017-05-10T15:14:14.755Z,2.66
2017-05-10T15:16:41.598Z,0.70
2017-05-10T15:19:08.429Z,1.28
2017-05-10T15:21:35.322Z,3.50
2017-05-10T15:24:02.131Z,2.44
2017-05-10T15:26:29.568Z,2.18
2017-05-10T15:28:56.366Z,2.94
2017-05-10T15:31:23.183Z,2.60
2017-05-10T15:33:50.044Z,3.08
2017-05-10T15:36:16.878Z,1.90
2017-05-10T15:38:43.721Z,2.52
2017-05-10T15:41:10.559Z,1.88
2017-05-10T15:43:37.384Z,1.64
2017-05-10T15:46:04.212Z,1.44
2017-05-10T15:48:31.047Z,1.36
2017-05-10T15:50:57.833Z,1.60
2017-05-10T15:53:24.646Z,1.48
2017-05-10T15:55:51.399Z,1.98
2017-05-10T15:58:18.213Z,1.90
2017-05-10T16:00:45.077Z,1.32
2017-05-10T16:03:12.015Z,1.80
2017-05-10T16:05:38.764Z,1.70
2017-05-10T16:08:05.564Z,1.56
2017-05-10T16:10:32.349Z,1.28
2017-05-10T16:12:59.087Z,1.64
2017-05-10T16:15:25.895Z,1.92
2017-05-10T16:17:52.659Z,2.02
2017-05-10T16:20:19.456Z,1.80
2017-05-10T16:22:46.259Z,2.00
2017-05-10T16:25:13.066Z,2.32
2017-05-10T16:27:39.859Z,2.06
2017-05-10T16:30:06.703Z,1.72
2017-05-10T16:32:33.466Z,1.90
2017-05-10T16:35:00.648Z,1.92
2017-05-10T16:37:27.576Z,2.52
2017-05-10T16:39:54.384Z,2.24
2017-05-10T16:42:21.189Z,2.28
2017-05-10T16:44:47.991Z,2.98
2017-05-10T16:47:14.794Z,2.14
2017-05-10T16:49:41.617Z,2.58
2017-05-10T16:52:08.424Z,1.74
2017-05-10T16:54:35.191Z,1.98
2017-05-10T16:57:01.977Z,2.50
2017-05-10T16:59:28.830Z,2.50
2017-05-10T17:01:55.609Z,2.20
2017-05-10T17:04:22.400Z,1.84
2017-05-10T17:06:49.192Z,2.60
2017-05-10T17:09:15.992Z,2.68
2017-05-10T17:11:42.808Z,2.44
2017-05-10T17:14:09.814Z,2.42
2017-05-10T17:16:36.621Z,3.08
2017-05-10T17:19:03.401Z,2.40
2017-05-10T17:21:30.204Z,2.70
2017-05-10T17:23:56.985Z,2.08
2017-05-10T17:26:23.766Z,3.98
2017-05-10T17:28:50.741Z,2.28
2017-05-10T17:31:17.563Z,3.04
2017-05-10T17:33:44.334Z,3.20
2017-05-10T17:36:11.443Z,2.24
2017-05-10T17:38:38.362Z,2.80
2017-05-10T17:41:05.167Z,2.90
2017-05-10T17:43:32.024Z,3.28
2017-05-10T17:45:58.849Z,4.34
2017-05-10T17:48:25.643Z,3.12
2017-05-10T17:50:52.451Z,3.50
2017-05-10T17:53:19.296Z,3.20
2017-05-10T17:55:46.063Z,3.98
2017-05-10T17:58:12.866Z,3.08
2017-05-10T18:00:39.637Z,3.14
2017-05-10T18:03:06.438Z,2.94
2017-05-10T18:05:33.258Z,3.02
2017-05-10T18:08:00.050Z,3.30
2017-05-10T18:10:26.906Z,3.88
2017-05-10T18:12:53.717Z,3.92
2017-05-10T18:15:20.870Z,3.78
2017-05-10T18:17:47.645Z,4.64
2017-05-10T18:20:14.646Z,4.14
2017-05-10T18:22:41.619Z,3.66
2017-05-10T18:25:08.413Z,3.34
2017-05-10T18:27:35.276Z,4.02
2017-05-10T18:30:02.098Z,3.36
2017-05-10T18:32:28.874Z,3.64
2017-05-10T18:34:55.707Z,3.28
2017-05-10T18:37:22.515Z,3.14
2017-05-10T18:39:49.344Z,3.44
2017-05-10T18:42:16.221Z,4.76
2017-05-10T18:44:43.072Z,5.52
2017-05-10T18:47:09.928Z,2.98
2017-05-10T18:49:36.769Z,2.90
2017-05-10T18:52:03.569Z,3.00
2017-05-10T18:54:30.402Z,3.08
2017-05-10T18:56:57.199Z,3.10
2017-05-10T18:59:23.959Z,3.38
2017-05-10T19:01:50.762Z,3.64
2017-05-10T19:04:17.623Z,2.94
2017-05-10T19:06:44.468Z,3.52
2017-05-10T19:09:11.295Z,4.22
2017-05-10T19:11:38.100Z,3.34
2017-05-10T19:14:05.049Z,3.90
2017-05-10T19:16:31.813Z,3.82
2017-05-10T19:18:58.658Z,3.90
2017-05-10T19:21:25.614Z,3.78
2017-05-10T19:23:52.470Z,4.00
2017-05-10T19:26:19.327Z,3.46
2017-05-10T19:28:46.206Z,3.66
2017-05-10T19:31:12.985Z,3.82
2017-05-10T19:33:39.857Z,3.20
2017-05-10T19:36:06.718Z,3.98
2017-05-10T19:38:33.526Z,3.64
2017-05-10T19:41:00.336Z,4.46
2017-05-10T19:43:27.152Z,3.22
2017-05-10T19:45:54.012Z,3.72
2017-05-10T19:48:21.044Z,3.90
2017-05-10T19:50:48.531Z,3.50
2017-05-10T19:53:15.359Z,3.50
2017-05-10T19:55:42.290Z,4.24
2017-05-10T19:58:09.077Z,4.38
2017-05-10T20:00:35.987Z,3.30
2017-05-10T20:03:02.860Z,3.54
2017-05-10T20:05:29.627Z,3.10
2017-05-10T20:07:56.392Z,4.16
2017-05-10T20:10:23.348Z,4.44
2017-05-10T20:12:50.466Z,4.46
2017-05-10T20:15:17.238Z,3.94
2017-05-10T20:17:44.126Z,3.72
2017-05-10T20:20:10.936Z,4.32
2017-05-10T20:22:37.725Z,3.64
2017-05-10T20:25:04.550Z,3.88
2017-05-10T20:27:31.324Z,4.12
2017-05-10T20:29:58.114Z,4.58
2017-05-10T20:32:24.943Z,4.42
2017-05-10T20:34:51.977Z,3.86
2017-05-10T20:37:18.756Z,4.54
2017-05-10T20:39:45.647Z,4.02
2017-05-10T20:42:12.446Z,3.76
2017-05-10T20:44:39.263Z,3.68
2017-05-10T20:47:06.123Z,3.48
2017-05-10T20:49:33.638Z,5.05
2017-05-10T20:52:00.602Z,4.46
2017-05-10T20:54:27.599Z,4.24
2017-05-10T20:56:54.379Z,3.90
2017-05-10T20:59:24.497Z,3.68
2017-05-10T21:01:51.531Z,3.96
2017-05-10T21:04:18.319Z,4.02
2017-05-10T21:06:45.125Z,4.50
2017-05-10T21:09:12.747Z,4.18
2017-05-10T21:11:39.637Z,3.84
2017-05-10T21:14:06.426Z,4.32
2017-05-10T21:16:33.245Z,3.70
2017-05-10T21:19:00.063Z,4.76
2017-05-10T21:21:26.833Z,3.98
2017-05-10T21:23:53.647Z,4.18
2017-05-10T21:26:20.447Z,4.60
2017-05-10T21:28:47.234Z,4.04
2017-05-10T21:31:14.065Z,4.44
2017-05-10T21:33:40.874Z,4.04
2017-05-10T21:36:07.669Z,4.28
2017-05-10T21:38:34.475Z,3.84
2017-05-10T21:41:01.254Z,4.44
2017-05-10T21:43:28.061Z,4.32
2017-05-10T21:45:54.931Z,4.02
2017-05-10T21:48:21.688Z,3.94
2017-05-10T21:50:48.478Z,3.88
2017-05-10T21:53:15.279Z,3.98
2017-05-10T21:55:42.041Z,4.56
2017-05-10T21:58:08.813Z,4.34
2017-05-10T22:00:35.624Z,4.38
2017-05-10T22:03:02.380Z,4.52
2017-05-10T22:05:29.167Z,5.40
2017-05-10T22:07:56.019Z,4.68
2017-05-10T22:10:22.826Z,4.34
2017-05-10T22:12:49.563Z,5.04
2017-05-10T22:15:16.373Z,5.42
2017-05-10T22:17:43.213Z,6.06
2017-05-10T22:20:09.983Z,5.40
2017-05-10T22:22:36.812Z,4.80
